Time;durP1;ratioP1;P1;durP2;ratioP2;P2;SDS_P1;SDS_P2;PMS_P1;PMS_P2;Temp;Humidity;BMP_temperature;BMP_pressure;BME280_temperature;BME280_humidity;BME280_pressure;Samples;Min_cycle;Max_cycle;Signal;HPM_P1;HPM_P2
2023/12/30 00:00:17;;;;;;;85.38;50.22;;;;;;;-142.57;100.00;56970.13;4915629;29;20532;-79
2023/12/30 00:02:42;;;;;;;80.88;50.00;;;;;;;-142.57;100.00;56964.06;4915999;29;20041;-80
2023/12/30 00:05:08;;;;;;;77.78;48.85;;;;;;;-142.57;100.00;56913.53;4915207;29;20036;-80
2023/12/30 00:07:34;;;;;;;81.63;51.33;;;;;;;-142.57;100.00;56913.53;4915149;29;20091;-81
2023/12/30 00:09:59;;;;;;;79.90;47.92;;;;;;;-142.57;100.00;56949.91;4898452;29;20107;-79
2023/12/30 00:12:25;;;;;;;80.10;47.63;;;;;;;-142.57;100.00;56901.41;4915827;29;20039;-79
2023/12/30 00:14:50;;;;;;;86.72;51.10;;;;;;;-142.57;100.00;56933.75;4915656;29;20041;-80
2023/12/30 00:17:16;;;;;;;84.97;50.65;;;;;;;-142.57;100.00;56962.03;4915876;29;20396;-78
2023/12/30 00:19:44;;;;;;;84.50;49.72;;;;;;;-142.57;100.00;56897.38;4918895;29;20036;-79
2023/12/30 00:22:11;;;;;;;84.82;50.25;;;;;;;-142.57;100.00;56941.81;4903499;29;20044;-77
2023/12/30 00:24:36;;;;;;;75.40;47.28;;;;;;;-142.57;100.00;56974.16;4924287;29;20074;-78
2023/12/30 00:27:02;;;;;;;77.60;46.53;;;;;;;-142.57;100.00;56895.34;4918447;29;20036;-78
2023/12/30 00:29:27;;;;;;;79.35;49.78;;;;;;;-142.57;100.00;56953.94;4901809;29;20103;-77
2023/12/30 00:31:53;;;;;;;79.57;48.85;;;;;;;-142.57;100.00;56917.56;4929891;29;20032;-81
2023/12/30 00:34:18;;;;;;;78.72;47.80;;;;;;;-142.57;100.00;56988.31;4927476;29;20036;-78
2023/12/30 00:36:44;;;;;;;82.60;49.85;;;;;;;-142.57;100.00;56953.94;4921796;29;20451;-78
2023/12/30 00:39:10;;;;;;;79.43;48.35;;;;;;;-142.57;100.00;56923.63;4906740;29;20082;-79
2023/12/30 00:41:36;;;;;;;74.93;46.25;;;;;;;-142.57;100.00;56933.75;4903155;29;20046;-79
2023/12/30 00:44:02;;;;;;;81.10;49.40;;;;;;;-142.57;100.00;56915.56;4889669;29;20091;-78
2023/12/30 00:46:27;;;;;;;81.68;48.45;;;;;;;-142.57;100.00;56949.91;4910669;29;20036;-78
2023/12/30 00:48:54;;;;;;;81.13;49.20;;;;;;;-142.57;100.00;56958.00;4886871;29;20421;-77
2023/12/30 00:51:19;;;;;;;75.10;45.35;;;;;;;-142.57;100.00;56945.88;4906687;29;20096;-77
2023/12/30 00:53:44;;;;;;;79.32;48.03;;;;;;;-142.57;100.00;56982.25;4888172;29;20044;-78
2023/12/30 00:56:10;;;;;;;78.72;46.85;;;;;;;-142.57;100.00;56970.13;4904995;29;20131;-78
2023/12/30 00:58:35;;;;;;;75.50;47.70;;;;;;;-142.57;100.00;56931.72;4898885;29;20045;-79
2023/12/30 01:01:01;;;;;;;79.47;48.85;;;;;;;-142.57;100.00;56986.28;4897283;29;20377;-79
2023/12/30 01:03:27;;;;;;;73.20;46.90;;;;;;;-142.57;100.00;56958.00;4887100;29;20437;-78
2023/12/30 01:05:55;;;;;;;73.95;47.15;;;;;;;-142.57;100.00;56939.81;4903750;29;20040;-79
2023/12/30 01:08:20;;;;;;;69.82;43.42;;;;;;;-142.57;100.00;56939.81;4883383;29;20044;-77
2023/12/30 01:10:46;;;;;;;71.50;44.78;;;;;;;-142.57;100.00;56941.81;4897641;29;20515;-79
2023/12/30 01:13:12;;;;;;;70.97;44.83;;;;;;;-142.57;100.00;56958.00;4882330;29;20041;-76
2023/12/30 01:15:37;;;;;;;73.97;45.75;;;;;;;-142.57;100.00;56953.94;4899461;29;20033;-77
2023/12/30 01:18:03;;;;;;;71.63;45.28;;;;;;;-142.57;100.00;56978.22;4899210;29;20041;-78
2023/12/30 01:20:32;;;;;;;73.65;46.55;;;;;;;-142.57;100.00;56923.63;4898980;29;20045;-76
2023/12/30 01:22:57;;;;;;;73.53;45.50;;;;;;;-142.57;100.00;56889.28;4899050;29;20108;-76
2023/12/30 01:25:23;;;;;;;72.03;45.25;;;;;;;-142.57;100.00;56903.44;4882437;29;20457;-77
2023/12/30 01:27:48;;;;;;;77.28;48.67;;;;;;;-142.57;100.00;56945.88;4883167;29;20455;-78
2023/12/30 01:30:14;;;;;;;78.53;47.35;;;;;;;-142.57;100.00;56974.16;4898692;29;20037;-79
2023/12/30 01:32:39;;;;;;;71.85;46.80;;;;;;;-142.57;100.00;56978.22;4898881;29;20044;-78
2023/12/30 01:35:05;;;;;;;74.57;47.35;;;;;;;-142.57;100.00;56976.19;4898598;29;20079;-77
2023/12/30 01:37:33;;;;;;;71.22;45.05;;;;;;;-142.57;100.00;56996.41;4897077;29;20094;-77
2023/12/30 01:39:59;;;;;;;71.43;45.28;;;;;;;-142.57;100.00;57016.59;4898276;29;20036;-78
2023/12/30 01:42:24;;;;;;;71.90;44.92;;;;;;;-142.57;100.00;56994.38;4896856;29;20036;-77
2023/12/30 01:44:50;;;;;;;68.68;44.25;;;;;;;-142.57;100.00;57046.94;4898019;29;20041;-77
2023/12/30 01:47:16;;;;;;;67.65;44.47;;;;;;;-142.57;100.00;57014.59;4897812;29;20092;-76
2023/12/30 01:49:44;;;;;;;67.00;43.85;;;;;;;-142.57;100.00;57073.19;4923729;29;20047;-78
2023/12/30 01:52:11;;;;;;;65.88;44.13;;;;;;;-142.57;100.00;57038.84;4935315;29;20032;-77
2023/12/30 01:54:38;;;;;;;65.75;43.08;;;;;;;-142.57;100.00;57059.06;4935718;29;20036;-78
2023/12/30 01:57:03;;;;;;;68.07;42.83;;;;;;;-142.57;100.00;57075.22;4935240;29;20448;-77
2023/12/30 01:59:30;;;;;;;67.53;42.67;;;;;;;-142.57;100.00;57042.88;4918284;29;20091;-77
2023/12/30 02:01:56;;;;;;;65.25;41.83;;;;;;;-142.57;100.00;56992.34;4918552;29;20043;-77
2023/12/30 02:04:24;;;;;;;67.82;41.88;;;;;;;-142.57;100.00;57048.94;4935193;29;20384;-78
2023/12/30 02:06:50;;;;;;;65.60;41.75;;;;;;;-142.57;100.00;57067.13;4934115;29;20039;-76
2023/12/30 02:09:16;;;;;;;63.05;43.03;;;;;;;-142.57;100.00;56968.09;4935838;29;20060;-77
2023/12/30 02:11:42;;;;;;;63.65;40.92;;;;;;;-142.57;100.00;57065.13;4918890;29;20047;-78
2023/12/30 02:14:28;;;;;;;67.15;43.10;;;;;;;-142.57;100.00;57038.84;4935843;29;20118;-79
2023/12/30 02:16:53;;;;;;;64.43;41.78;;;;;;;-142.57;100.00;56962.03;4935695;29;20043;-78
2023/12/30 02:19:19;;;;;;;68.22;41.85;;;;;;;-142.57;100.00;56986.28;4935468;29;20094;-77
2023/12/30 02:21:45;;;;;;;62.92;39.33;;;;;;;-142.57;100.00;57032.78;4935566;29;20039;-78
2023/12/30 02:24:11;;;;;;;63.22;40.50;;;;;;;-142.57;100.00;57032.78;4918342;29;20410;-76
2023/12/30 02:26:36;;;;;;;71.57;40.80;;;;;;;-142.57;100.00;57042.88;4935314;29;20047;-76
2023/12/30 02:29:02;;;;;;;70.13;41.00;;;;;;;-142.57;100.00;57022.69;4918241;29;20047;-78
2023/12/30 02:31:27;;;;;;;65.30;40.25;;;;;;;-142.57;100.00;57040.88;4935362;29;20036;-77
2023/12/30 02:33:53;;;;;;;71.47;39.85;;;;;;;-142.57;100.00;57087.34;4935022;29;20039;-76
2023/12/30 02:36:18;;;;;;;63.17;39.40;;;;;;;-142.57;100.00;57095.44;4935129;29;20083;-79
2023/12/30 02:38:44;;;;;;;70.78;39.53;;;;;;;-142.57;100.00;57042.88;4934881;29;20106;-78
2023/12/30 02:41:09;;;;;;;73.07;41.08;;;;;;;-142.57;100.00;57046.94;4934296;29;20043;-77
2023/12/30 02:43:46;;;;;;;71.47;41.10;;;;;;;-142.57;100.00;57038.84;4934877;29;20446;-77
2023/12/30 02:46:12;;;;;;;66.70;40.00;;;;;;;-142.57;100.00;56994.38;4934815;29;20171;-76
2023/12/30 02:48:38;;;;;;;65.47;37.45;;;;;;;-142.57;100.00;57002.47;4934741;29;20088;-77
2023/12/30 02:51:03;;;;;;;70.20;38.33;;;;;;;-142.57;100.00;56990.34;4934939;29;20913;-78
2023/12/30 02:53:29;;;;;;;68.40;36.85;;;;;;;-142.57;100.00;57002.47;4934752;29;20040;-76
2023/12/30 02:55:54;;;;;;;63.05;37.45;;;;;;;-142.57;100.00;57022.69;4934998;29;20501;-78
2023/12/30 02:58:20;;;;;;;74.45;37.75;;;;;;;-142.57;100.00;57034.81;4917180;29;20043;-78
2023/12/30 03:00:45;;;;;;;68.93;36.42;;;;;;;-142.57;100.00;57044.91;4934778;29;20031;-77
2023/12/30 03:03:11;;;;;;;65.70;36.08;;;;;;;-142.57;100.00;57032.78;4934704;29;20486;-78
2023/12/30 03:05:38;;;;;;;63.65;35.03;;;;;;;-142.57;100.00;57026.72;4934895;29;20059;-78
2023/12/30 03:08:07;;;;;;;60.72;34.55;;;;;;;-142.57;100.00;57022.69;4934673;29;20024;-77
2023/12/30 03:10:32;;;;;;;63.40;35.47;;;;;;;-142.57;100.00;56998.41;4917458;29;20123;-77
2023/12/30 03:12:58;;;;;;;62.72;35.13;;;;;;;-142.57;100.00;57079.28;4934927;29;20171;-77
2023/12/30 03:15:24;;;;;;;65.57;33.20;;;;;;;-142.57;100.00;56998.41;4934679;29;20066;-77
2023/12/30 03:17:49;;;;;;;62.65;34.10;;;;;;;-142.57;100.00;57067.13;4934386;29;20182;-77
2023/12/30 03:20:18;;;;;;;66.35;35.78;;;;;;;-142.57;100.00;57002.47;4934671;29;20051;-78
2023/12/30 03:22:43;;;;;;;64.07;36.35;;;;;;;-142.57;100.00;57040.88;4917665;29;20054;-79
2023/12/30 03:25:09;;;;;;;64.03;33.38;;;;;;;-142.57;100.00;57038.84;4934458;29;20032;-77
2023/12/30 03:27:36;;;;;;;59.85;32.75;;;;;;;-142.57;100.00;57095.44;4932867;29;20782;-77
2023/12/30 03:30:01;;;;;;;60.00;33.15;;;;;;;-142.57;100.00;57010.53;4934559;29;20047;-77
2023/12/30 03:32:28;;;;;;;59.63;33.38;;;;;;;-142.57;100.00;56955.97;4934625;29;20035;-77
2023/12/30 03:34:53;;;;;;;54.63;32.25;;;;;;;-142.57;100.00;56970.13;4934682;29;20046;-77
2023/12/30 03:37:19;;;;;;;66.78;34.08;;;;;;;-142.57;100.00;56992.34;4934255;29;20027;-77
2023/12/30 03:39:44;;;;;;;66.72;34.85;;;;;;;-142.57;100.00;56978.22;4934537;29;20424;-77
2023/12/30 03:42:10;;;;;;;61.90;32.63;;;;;;;-142.57;100.00;57026.72;4934838;29;20035;-78
2023/12/30 03:44:35;;;;;;;65.65;33.25;;;;;;;-142.57;100.00;57091.41;4935581;29;20060;-76
2023/12/30 03:47:01;;;;;;;61.47;33.28;;;;;;;-142.57;100.00;57055.00;4935238;29;20457;-76
2023/12/30 03:49:27;;;;;;;59.65;32.10;;;;;;;-142.57;100.00;57067.13;4917385;29;20151;-78
2023/12/30 03:51:52;;;;;;;61.63;32.45;;;;;;;-142.57;100.00;57087.34;4934287;29;20550;-77
2023/12/30 03:54:18;;;;;;;63.97;31.55;;;;;;;-142.57;100.00;57038.84;4937175;29;20059;-78
2023/12/30 03:56:43;;;;;;;55.08;30.65;;;;;;;-142.57;100.00;57026.72;4921157;29;20036;-76
2023/12/30 03:59:09;;;;;;;62.55;32.67;;;;;;;-142.57;100.00;57030.75;4937316;29;20478;-78
2023/12/30 04:01:41;;;;;;;64.75;30.92;;;;;;;-142.57;100.00;57048.94;4937615;29;20040;-77
2023/12/30 04:04:06;;;;;;;55.92;30.48;;;;;;;-142.57;100.00;57042.88;4937692;29;20036;-76
2023/12/30 04:06:32;;;;;;;54.28;29.75;;;;;;;-142.57;100.00;57038.84;4937495;29;20050;-77
2023/12/30 04:08:57;;;;;;;57.85;30.23;;;;;;;-142.57;100.00;57034.81;4937727;29;20032;-78
2023/12/30 04:11:23;;;;;;;58.67;31.05;;;;;;;-142.57;100.00;56986.28;4920573;29;20739;-78
2023/12/30 04:13:48;;;;;;;56.28;30.50;;;;;;;-142.57;100.00;57012.56;4937385;29;20028;-78
2023/12/30 04:16:14;;;;;;;52.25;28.63;;;;;;;-142.57;100.00;57057.03;4920713;29;20031;-78
2023/12/30 04:18:39;;;;;;;60.85;31.92;;;;;;;-142.57;100.00;57042.88;4920319;29;20052;-79
2023/12/30 04:21:05;;;;;;;59.60;30.15;;;;;;;-142.57;100.00;57010.53;4920190;29;20028;-77
2023/12/30 04:23:31;;;;;;;57.95;30.00;;;;;;;-142.57;100.00;57050.97;4937369;29;20035;-78
2023/12/30 04:25:56;;;;;;;59.20;31.55;;;;;;;-142.57;100.00;57042.88;4937564;29;20034;-78
2023/12/30 04:28:22;;;;;;;60.33;30.30;;;;;;;-142.57;100.00;57137.88;4920317;29;20067;-78
2023/12/30 04:30:47;;;;;;;57.45;30.80;;;;;;;-142.57;100.00;57083.31;4937479;29;20140;-78
2023/12/30 04:33:13;;;;;;;56.25;29.52;;;;;;;-142.57;100.00;57020.66;4937632;29;20090;-77
2023/12/30 04:35:41;;;;;;;57.65;29.02;;;;;;;-142.57;100.00;57075.22;4937438;29;20537;-77
2023/12/30 04:38:06;;;;;;;54.42;29.40;;;;;;;-142.57;100.00;57059.06;4919935;29;20024;-78
2023/12/30 04:40:32;;;;;;;64.18;30.65;;;;;;;-142.57;100.00;57030.75;4937193;29;20035;-78
2023/12/30 04:42:57;;;;;;;56.13;29.25;;;;;;;-142.57;100.00;57077.25;4920256;29;20114;-77
2023/12/30 04:45:23;;;;;;;54.47;29.13;;;;;;;-142.57;100.00;57077.25;4920174;29;20518;-79
2023/12/30 04:47:48;;;;;;;58.72;30.25;;;;;;;-142.57;100.00;57059.06;4937019;29;20062;-78
2023/12/30 04:50:14;;;;;;;51.03;28.55;;;;;;;-142.57;100.00;57042.88;4920262;29;20028;-78
2023/12/30 04:52:40;;;;;;;51.72;28.52;;;;;;;-142.57;100.00;57083.31;4920317;29;20550;-78
2023/12/30 04:55:06;;;;;;;51.85;28.90;;;;;;;-142.57;100.00;57071.19;4920032;29;20067;-77
2023/12/30 04:57:31;;;;;;;49.85;28.73;;;;;;;-142.57;100.00;57014.59;4919970;29;20134;-78
2023/12/30 04:59:57;;;;;;;50.20;29.35;;;;;;;-142.57;100.00;57030.75;4936849;29;20135;-79
2023/12/30 05:02:23;;;;;;;51.35;29.15;;;;;;;-142.57;100.00;57012.56;4919573;29;20523;-77
2023/12/30 05:04:48;;;;;;;52.45;28.77;;;;;;;-142.57;100.00;56978.22;4935931;29;20043;-79
2023/12/30 05:07:14;;;;;;;49.17;28.33;;;;;;;-142.57;100.00;57022.69;4935538;29;20039;-79
2023/12/30 05:09:39;;;;;;;54.85;29.85;;;;;;;-142.57;100.00;57004.47;4937057;29;20031;-79
2023/12/30 05:12:05;;;;;;;50.13;28.17;;;;;;;-142.57;100.00;57016.59;4936992;29;20587;-79
2023/12/30 05:14:31;;;;;;;49.55;29.38;;;;;;;-142.57;100.00;57040.88;4936816;29;20035;-78
2023/12/30 05:16:56;;;;;;;49.40;28.80;;;;;;;-142.57;100.00;57048.94;4919827;29;20036;-78
2023/12/30 05:19:22;;;;;;;52.78;29.77;;;;;;;-142.57;100.00;56998.41;4935148;29;20044;-77
2023/12/30 05:21:51;;;;;;;49.92;29.60;;;;;;;-142.57;100.00;57006.50;4917594;29;20127;-78
2023/12/30 05:24:16;;;;;;;46.20;27.08;;;;;;;-142.57;100.00;57018.63;4917585;29;20040;-77
2023/12/30 05:26:42;;;;;;;47.05;29.08;;;;;;;-142.57;100.00;57065.13;4917559;29;20032;-77
2023/12/30 05:29:07;;;;;;;50.20;29.00;;;;;;;-142.57;100.00;57030.75;4917601;29;20128;-77
2023/12/30 05:31:33;;;;;;;49.22;28.23;;;;;;;-142.57;100.00;57034.81;4916969;29;20399;-77
2023/12/30 05:33:58;;;;;;;47.65;28.00;;;;;;;-142.57;100.00;57042.88;4900579;29;20066;-78
2023/12/30 05:36:24;;;;;;;50.63;28.88;;;;;;;-142.57;100.00;57069.16;4916651;29;20099;-77
2023/12/30 05:38:49;;;;;;;51.17;28.88;;;;;;;-142.57;100.00;57050.97;4900343;29;20040;-78
2023/12/30 05:41:15;;;;;;;47.08;28.02;;;;;;;-142.57;100.00;57059.06;4917300;29;20036;-78
2023/12/30 05:43:41;;;;;;;50.47;29.88;;;;;;;-142.57;100.00;57044.91;4917244;29;20087;-76
2023/12/30 05:46:07;;;;;;;44.05;27.58;;;;;;;-142.57;100.00;57050.97;4917181;29;20435;-78
2023/12/30 05:48:33;;;;;;;47.60;27.98;;;;;;;-142.57;100.00;57022.69;4917161;29;20031;-76
2023/12/30 05:50:59;;;;;;;45.83;27.10;;;;;;;-142.57;100.00;57030.75;4916934;29;20028;-77
2023/12/30 05:53:24;;;;;;;47.15;28.08;;;;;;;-142.57;100.00;57014.59;4916848;29;20465;-76
2023/12/30 05:55:52;;;;;;;47.45;28.23;;;;;;;-142.57;100.00;57000.44;4917244;29;20036;-77
2023/12/30 05:58:19;;;;;;;50.35;27.70;;;;;;;-142.57;100.00;57085.34;4916933;29;20115;-76
2023/12/30 06:00:44;;;;;;;48.35;27.90;;;;;;;-142.57;100.00;57046.94;4918076;29;20040;-80
2023/12/30 06:03:10;;;;;;;46.33;28.08;;;;;;;-142.57;100.00;57091.41;4920972;29;20086;-78
2023/12/30 06:05:35;;;;;;;44.45;26.95;;;;;;;-142.57;100.00;57075.22;4917663;29;20063;-81
2023/12/30 06:08:01;;;;;;;47.85;27.83;;;;;;;-142.57;100.00;57014.59;4916581;29;20028;-78
2023/12/30 06:10:26;;;;;;;46.45;27.80;;;;;;;-142.57;100.00;56990.34;4916598;29;20475;-78
2023/12/30 06:12:52;;;;;;;45.38;27.13;;;;;;;-142.57;100.00;57010.53;4916520;29;20108;-78
2023/12/30 06:15:20;;;;;;;48.05;26.95;;;;;;;-142.57;100.00;57014.59;4924815;29;20067;-81
2023/12/30 06:17:45;;;;;;;50.28;28.35;;;;;;;-142.57;100.00;56994.38;4935078;29;20070;-83
2023/12/30 06:20:11;;;;;;;51.15;28.40;;;;;;;-142.57;100.00;57040.88;4935886;29;20502;-83
2023/12/30 06:22:37;;;;;;;55.80;30.88;;;;;;;-142.57;100.00;57036.81;4936215;29;20043;-80
2023/12/30 06:25:03;;;;;;;62.30;30.88;;;;;;;-142.57;100.00;57042.88;4935746;29;20039;-80
2023/12/30 06:27:29;;;;;;;54.67;29.00;;;;;;;-142.57;100.00;57022.69;4935675;29;20487;-78
2023/12/30 06:29:54;;;;;;;54.05;31.25;;;;;;;-142.57;100.00;57059.06;4935365;29;20038;-80
2023/12/30 06:32:20;;;;;;;61.67;31.35;;;;;;;-142.57;100.00;57055.00;4918208;29;20034;-80
2023/12/30 06:34:45;;;;;;;57.22;29.52;;;;;;;-142.57;100.00;57071.19;4935200;29;20490;-77
2023/12/30 06:37:10;;;;;;;55.95;32.20;;;;;;;-142.57;100.00;57016.59;4935412;29;20099;-80
2023/12/30 06:39:36;;;;;;;62.40;33.13;;;;;;;-142.57;100.00;57042.88;4918157;29;20086;-79
2023/12/30 06:42:02;;;;;;;64.60;34.30;;;;;;;-142.57;100.00;57004.47;4935401;29;20135;-80
2023/12/30 06:44:27;;;;;;;63.15;34.67;;;;;;;-142.57;100.00;57022.69;4935221;29;20036;-79
2023/12/30 06:46:53;;;;;;;61.97;35.65;;;;;;;-142.57;100.00;57040.88;4934938;29;20394;-79
2023/12/30 06:49:18;;;;;;;64.30;36.00;;;;;;;-142.57;100.00;57063.09;4935145;29;20497;-81
2023/12/30 06:51:44;;;;;;;68.32;34.28;;;;;;;-142.57;100.00;57099.47;4934923;29;20039;-79
2023/12/30 06:54:09;;;;;;;65.57;33.40;;;;;;;-142.57;100.00;57046.94;4934904;29;20040;-80
2023/12/30 06:56:35;;;;;;;61.47;33.40;;;;;;;-142.57;100.00;57077.25;4934997;29;20043;-78
2023/12/30 06:59:00;;;;;;;63.25;31.45;;;;;;;-142.57;100.00;57020.66;4934975;29;20122;-78
2023/12/30 07:01:26;;;;;;;55.45;31.30;;;;;;;-142.57;100.00;57014.59;4934332;29;20074;-78
2023/12/30 07:03:52;;;;;;;50.33;29.88;;;;;;;-142.57;100.00;57046.94;4934564;29;20031;-78
2023/12/30 07:06:18;;;;;;;51.47;29.75;;;;;;;-142.57;100.00;57016.59;4933956;29;20076;-79
2023/12/30 07:08:43;;;;;;;53.70;30.95;;;;;;;-142.57;100.00;56978.22;4917919;29;20043;-77
2023/12/30 07:11:09;;;;;;;58.67;31.42;;;;;;;-142.57;100.00;56958.00;4934758;29;20074;-80
2023/12/30 07:13:34;;;;;;;56.33;32.78;;;;;;;-142.57;100.00;56984.28;4934696;29;20368;-78
2023/12/30 07:16:00;;;;;;;62.10;33.90;;;;;;;-142.57;100.00;57038.84;4934793;29;20036;-77
2023/12/30 07:18:26;;;;;;;55.42;32.15;;;;;;;-142.57;100.00;57065.13;4934793;29;20063;-78
2023/12/30 07:20:51;;;;;;;65.97;35.08;;;;;;;-142.57;100.00;57152.03;4917725;29;20067;-77
2023/12/30 07:23:17;;;;;;;62.75;34.20;;;;;;;-142.57;100.00;57198.53;4934739;29;20475;-80
2023/12/30 07:25:42;;;;;;;59.55;32.67;;;;;;;-142.57;100.00;57178.31;4934877;29;20036;-78
2023/12/30 07:28:08;;;;;;;58.92;33.45;;;;;;;-142.57;100.00;57117.66;4934220;29;20032;-79
2023/12/30 07:30:34;;;;;;;57.03;32.45;;;;;;;-142.57;100.00;57196.50;4934491;29;20031;-79
2023/12/30 07:33:01;;;;;;;56.72;31.52;;;;;;;-142.57;100.00;57127.78;4934358;29;20114;-78
2023/12/30 07:35:27;;;;;;;54.90;32.00;;;;;;;-142.57;100.00;57145.97;4934786;29;20099;-77
2023/12/30 07:37:53;;;;;;;56.35;31.38;;;;;;;-142.57;100.00;57188.41;4934263;29;20118;-79
2023/12/30 07:40:19;;;;;;;53.10;31.60;;;;;;;-142.57;100.00;57243.00;4934533;29;20475;-80
2023/12/30 07:42:44;;;;;;;54.00;31.05;;;;;;;-142.57;100.00;57164.16;4934504;29;20393;-80
2023/12/30 07:45:10;;;;;;;57.00;33.72;;;;;;;-142.57;100.00;57257.13;4933383;29;20051;-80
2023/12/30 07:47:36;;;;;;;56.83;34.35;;;;;;;-142.57;100.00;57380.44;4933585;29;20059;-80
2023/12/30 07:50:02;;;;;;;136.90;36.90;;;;;;;-142.57;100.00;57374.38;4934699;29;20054;-80
2023/12/30 07:52:28;;;;;;;93.93;35.33;;;;;;;-142.57;100.00;57398.63;4918372;29;20036;-84
2023/12/30 07:54:53;;;;;;;393.40;49.47;;;;;;;-142.57;100.00;57461.28;4936180;29;20483;-87
2023/12/30 07:57:20;;;;;;;376.02;49.08;;;;;;;-142.57;100.00;57485.56;4935177;29;20036;-85
2023/12/30 07:59:51;;;;;;;160.32;39.05;;;;;;;-142.57;100.00;57459.28;4935514;29;20044;-86
2023/12/30 08:02:19;;;;;;;78.63;34.70;;;;;;;-142.57;100.00;57437.03;4935839;29;20032;-85
2023/12/30 08:04:45;;;;;;;267.05;42.03;;;;;;;-142.57;100.00;57475.44;4935771;29;20040;-81
2023/12/30 08:07:11;;;;;;;291.98;43.05;;;;;;;-142.57;100.00;57509.81;4935247;29;20387;-85
2023/12/30 08:09:37;;;;;;;97.72;36.17;;;;;;;-142.57;100.00;57491.63;4918546;29;20410;-84
2023/12/30 08:12:04;;;;;;;72.32;34.42;;;;;;;-142.57;100.00;57616.94;4936379;29;20028;-85
2023/12/30 08:14:31;;;;;;;57.55;32.70;;;;;;;-142.57;100.00;57556.31;4943481;29;20043;-82
2023/12/30 08:16:58;;;;;;;58.50;33.50;;;;;;;-142.57;100.00;57410.75;4951148;29;20039;-81
2023/12/30 08:19:24;;;;;;;63.40;33.97;;;;;;;-142.57;100.00;57380.44;4936152;29;20081;-84
2023/12/30 08:21:49;;;;;;;60.53;34.25;;;;;;;-142.57;100.00;57414.81;4938963;29;20483;-83
2023/12/30 08:24:16;;;;;;;61.70;33.78;;;;;;;-142.57;100.00;57414.81;4935310;29;20074;-82
2023/12/30 08:26:41;;;;;;;67.78;34.80;;;;;;;-142.57;100.00;57398.63;4935261;29;20044;-85
2023/12/30 08:29:09;;;;;;;60.88;33.13;;;;;;;-142.57;100.00;57398.63;4935817;29;20039;-85
2023/12/30 08:31:45;;;;;;;68.95;35.05;;;;;;;-142.57;100.00;57471.41;4918818;29;20032;-82
2023/12/30 08:34:16;;;;;;;62.83;35.05;;;;;;;-142.57;100.00;57507.78;4934711;29;20040;-78
2023/12/30 08:36:42;;;;;;;71.60;36.53;;;;;;;-142.57;100.00;57491.63;4933998;29;20040;-79
2023/12/30 08:39:08;;;;;;;66.00;36.15;;;;;;;-142.57;100.00;57404.69;4934110;29;20295;-77
2023/12/30 08:41:34;;;;;;;57.95;33.38;;;;;;;-142.57;100.00;57410.75;4937491;29;20058;-79
2023/12/30 08:44:00;;;;;;;60.95;34.92;;;;;;;-142.57;100.00;57374.38;4937400;29;20035;-76
2023/12/30 08:46:25;;;;;;;67.60;38.55;;;;;;;-142.57;100.00;57305.66;4937494;29;20394;-78
2023/12/30 08:48:51;;;;;;;60.30;36.08;;;;;;;-142.57;100.00;57230.88;4937510;29;20031;-78
2023/12/30 08:51:16;;;;;;;66.70;35.70;;;;;;;-142.57;100.00;57247.03;4937446;29;20048;-78
2023/12/30 08:53:42;;;;;;;51.80;31.05;;;;;;;-142.57;100.00;57230.88;4938785;29;20039;-88
2023/12/30 08:56:08;;;;;;;53.42;31.15;;;;;;;-142.57;100.00;57164.16;4937883;29;20050;-79
2023/12/30 08:58:33;;;;;;;57.90;33.03;;;;;;;-142.57;100.00;57164.16;4937394;29;20046;-80
2023/12/30 09:00:59;;;;;;;63.60;33.42;;;;;;;-142.57;100.00;57210.66;4919991;29;20087;-78
2023/12/30 09:03:24;;;;;;;58.63;33.55;;;;;;;-142.57;100.00;57210.66;4936806;29;20084;-78
2023/12/30 09:05:50;;;;;;;56.30;30.02;;;;;;;-142.57;100.00;57265.22;4937207;29;20106;-79
2023/12/30 09:08:16;;;;;;;51.60;28.95;;;;;;;-142.57;100.00;57269.28;4937082;29;20051;-79
2023/12/30 09:10:41;;;;;;;59.03;30.70;;;;;;;-142.57;100.00;57196.50;4937223;29;20178;-80
2023/12/30 09:13:07;;;;;;;48.83;27.65;;;;;;;-142.57;100.00;57245.00;4937015;29;20119;-79
2023/12/30 09:15:34;;;;;;;50.97;28.85;;;;;;;-142.57;100.00;57259.16;4937591;29;20495;-79
2023/12/30 09:17:59;;;;;;;52.17;27.70;;;;;;;-142.57;100.00;57192.47;4937494;29;20032;-81
2023/12/30 09:20:25;;;;;;;46.05;27.92;;;;;;;-142.57;100.00;57202.56;4936748;29;20505;-80
2023/12/30 09:22:51;;;;;;;47.67;28.65;;;;;;;-142.57;100.00;57261.19;4936761;29;20095;-79
2023/12/30 09:25:18;;;;;;;48.75;29.83;;;;;;;-142.57;100.00;57232.88;4936873;29;20133;-80
2023/12/30 09:27:44;;;;;;;48.85;28.45;;;;;;;-142.57;100.00;57269.28;4937017;29;20043;-78
2023/12/30 09:30:10;;;;;;;53.65;29.88;;;;;;;-142.57;100.00;57329.91;4937514;29;20087;-79
2023/12/30 09:32:36;;;;;;;51.50;30.05;;;;;;;-142.57;100.00;57321.81;4937704;29;20032;-80
2023/12/30 09:35:02;;;;;;;52.38;31.35;;;;;;;-142.57;100.00;57315.75;4937007;29;20044;-81
2023/12/30 09:37:28;;;;;;;52.17;30.37;;;;;;;-142.57;100.00;57342.03;4936797;29;20391;-80
2023/12/30 09:39:54;;;;;;;56.88;32.80;;;;;;;-142.57;100.00;57317.78;4936934;29;20040;-80
2023/12/30 09:42:20;;;;;;;69.68;36.92;;;;;;;-142.57;100.00;57208.63;4936489;29;20054;-80
2023/12/30 09:44:47;;;;;;;76.72;40.08;;;;;;;-142.57;100.00;57200.53;4936653;29;20039;-82
2023/12/30 09:47:13;;;;;;;66.63;35.35;;;;;;;-142.57;100.00;57224.78;4937165;29;20036;-80
2023/12/30 09:49:40;;;;;;;80.03;41.22;;;;;;;-142.57;100.00;57170.22;4937570;29;20059;-81
2023/12/30 09:52:09;;;;;;;72.55;37.38;;;;;;;-142.57;100.00;57202.56;4937653;29;20042;-81
2023/12/30 09:54:34;;;;;;;103.22;40.67;;;;;;;-142.57;100.00;57220.75;4937348;29;20042;-79
2023/12/30 09:57:02;;;;;;;80.78;40.92;;;;;;;-142.57;100.00;57236.94;4936362;29;20039;-80
2023/12/30 09:59:30;;;;;;;89.47;40.83;;;;;;;-142.57;100.00;57204.59;4936536;29;20040;-81
2023/12/30 10:01:56;;;;;;;80.90;39.30;;;;;;;-142.57;100.00;57202.56;4936482;29;20122;-78
2023/12/30 10:04:22;;;;;;;79.78;40.83;;;;;;;-142.57;100.00;57143.94;4936618;29;20450;-80
2023/12/30 10:06:51;;;;;;;74.68;40.90;;;;;;;-142.57;100.00;57196.50;4919316;29;20043;-78
2023/12/30 10:09:19;;;;;;;75.38;40.30;;;;;;;-142.57;100.00;57176.28;4936407;29;20375;-79
2023/12/30 10:11:46;;;;;;;63.20;34.17;;;;;;;-142.57;100.00;57200.53;4936310;29;20044;-78
2023/12/30 10:14:11;;;;;;;64.85;33.80;;;;;;;-142.57;100.00;57176.28;4935747;29;20036;-78
2023/12/30 10:16:37;;;;;;;64.55;32.47;;;;;;;-142.57;100.00;57141.94;4936391;29;20395;-80
2023/12/30 10:19:10;;;;;;;59.22;33.67;;;;;;;-142.57;100.00;57152.03;4936892;29;20043;-80
2023/12/30 10:21:39;;;;;;;63.85;34.60;;;;;;;-142.57;100.00;57143.94;4936228;29;20043;-79
2023/12/30 10:24:06;;;;;;;59.53;32.72;;;;;;;-142.57;100.00;57152.03;4918878;29;20111;-78
2023/12/30 10:26:39;;;;;;;60.40;34.15;;;;;;;-142.57;100.00;57162.13;4935839;29;20028;-81
2023/12/30 10:29:06;;;;;;;60.40;35.40;;;;;;;-142.57;100.00;57156.06;4918915;29;20108;-81
2023/12/30 10:31:32;;;;;;;62.13;34.42;;;;;;;-142.57;100.00;57141.94;4918655;29;20032;-78
2023/12/30 10:33:58;;;;;;;63.03;35.08;;;;;;;-142.57;100.00;57194.47;4937416;29;20074;-78
2023/12/30 10:36:28;;;;;;;58.25;32.30;;;;;;;-142.57;100.00;57180.34;4937390;29;20043;-78
2023/12/30 10:38:54;;;;;;;58.05;32.75;;;;;;;-142.57;100.00;57111.59;4937435;29;20044;-84
2023/12/30 10:41:20;;;;;;;60.30;33.03;;;;;;;-142.57;100.00;57095.44;4936047;29;20133;-81
2023/12/30 10:43:47;;;;;;;66.18;35.53;;;;;;;-142.57;100.00;56966.09;4935700;29;20040;-81
2023/12/30 10:46:17;;;;;;;70.03;36.78;;;;;;;-142.57;100.00;56913.53;4935653;29;20024;-80
2023/12/30 10:48:55;;;;;;;68.68;38.60;;;;;;;-142.57;100.00;56935.75;4919204;29;20036;-79